sensor_id;sensor_type;location;lat;lon;timestamp;P1;durP1;ratioP1;P2;durP2;ratioP2
40953;SDS011;26686;50.130;8.710;2023-03-20T00:00:51;3.90;;;3.55;;
40953;SDS011;26686;50.130;8.710;2023-03-20T00:05:53;4.78;;;4.38;;
40953;SDS011;26686;50.130;8.710;2023-03-20T00:10:54;4.43;;;4.13;;
40953;SDS011;26686;50.130;8.710;2023-03-20T00:15:56;4.65;;;4.25;;
40953;SDS011;26686;50.130;8.710;2023-03-20T00:20:57;6.13;;;4.72;;
40953;SDS011;26686;50.130;8.710;2023-03-20T00:25:59;6.07;;;4.63;;
40953;SDS011;26686;50.130;8.710;2023-03-20T00:31:00;4.38;;;3.97;;
40953;SDS011;26686;50.130;8.710;2023-03-20T00:36:02;4.25;;;3.85;;
40953;SDS011;26686;50.130;8.710;2023-03-20T00:41:10;5.32;;;4.20;;
40953;SDS011;26686;50.130;8.710;2023-03-20T00:46:25;4.35;;;3.95;;
40953;SDS011;26686;50.130;8.710;2023-03-20T00:51:27;5.15;;;4.13;;
40953;SDS011;26686;50.130;8.710;2023-03-20T00:56:33;5.32;;;4.28;;
40953;SDS011;26686;50.130;8.710;2023-03-20T01:01:40;4.85;;;4.38;;
40953;SDS011;26686;50.130;8.710;2023-03-20T01:06:42;4.85;;;4.22;;
40953;SDS011;26686;50.130;8.710;2023-03-20T01:11:44;3.70;;;3.40;;
40953;SDS011;26686;50.130;8.710;2023-03-20T01:16:46;4.93;;;4.18;;
40953;SDS011;26686;50.130;8.710;2023-03-20T01:21:48;5.00;;;4.47;;
40953;SDS011;26686;50.130;8.710;2023-03-20T01:26:49;5.78;;;4.20;;
40953;SDS011;26686;50.130;8.710;2023-03-20T01:31:52;4.70;;;4.28;;
40953;SDS011;26686;50.130;8.710;2023-03-20T01:36:55;4.30;;;4.00;;
40953;SDS011;26686;50.130;8.710;2023-03-20T01:47:01;5.93;;;4.38;;
40953;SDS011;26686;50.130;8.710;2023-03-20T01:52:04;5.10;;;3.85;;
40953;SDS011;26686;50.130;8.710;2023-03-20T01:57:10;4.40;;;4.00;;
40953;SDS011;26686;50.130;8.710;2023-03-20T02:02:20;5.85;;;4.28;;
40953;SDS011;26686;50.130;8.710;2023-03-20T02:07:23;4.95;;;4.50;;
40953;SDS011;26686;50.130;8.710;2023-03-20T02:12:25;4.70;;;4.30;;
40953;SDS011;26686;50.130;8.710;2023-03-20T02:17:27;4.15;;;3.75;;
40953;SDS011;26686;50.130;8.710;2023-03-20T02:22:37;4.80;;;4.40;;
40953;SDS011;26686;50.130;8.710;2023-03-20T02:48:52;6.00;;;5.50;;
40953;SDS011;26686;50.130;8.710;2023-03-20T02:54:03;6.35;;;5.75;;
40953;SDS011;26686;50.130;8.710;2023-03-20T02:59:15;6.25;;;5.68;;
40953;SDS011;26686;50.130;8.710;2023-03-20T03:04:20;5.75;;;5.25;;
40953;SDS011;26686;50.130;8.710;2023-03-20T03:09:29;6.68;;;5.95;;
40953;SDS011;26686;50.130;8.710;2023-03-20T03:14:36;7.28;;;6.45;;
40953;SDS011;26686;50.130;8.710;2023-03-20T03:19:41;6.90;;;6.30;;
40953;SDS011;26686;50.130;8.710;2023-03-20T03:24:48;6.85;;;6.25;;
40953;SDS011;26686;50.130;8.710;2023-03-20T03:29:59;6.70;;;6.10;;
40953;SDS011;26686;50.130;8.710;2023-03-20T03:35:03;7.63;;;6.90;;
40953;SDS011;26686;50.130;8.710;2023-03-20T03:40:13;7.05;;;6.35;;
40953;SDS011;26686;50.130;8.710;2023-03-20T03:45:24;7.97;;;7.05;;
40953;SDS011;26686;50.130;8.710;2023-03-20T03:50:44;7.07;;;6.38;;
40953;SDS011;26686;50.130;8.710;2023-03-20T03:55:51;8.15;;;6.88;;
40953;SDS011;26686;50.130;8.710;2023-03-20T04:00:54;7.97;;;7.18;;
40953;SDS011;26686;50.130;8.710;2023-03-20T04:05:58;10.27;;;8.73;;
40953;SDS011;26686;50.130;8.710;2023-03-20T04:11:03;7.85;;;6.47;;
40953;SDS011;26686;50.130;8.710;2023-03-20T04:16:04;8.25;;;7.00;;
40953;SDS011;26686;50.130;8.710;2023-03-20T04:21:07;8.07;;;6.65;;
40953;SDS011;26686;50.130;8.710;2023-03-20T04:26:09;7.50;;;6.80;;
40953;SDS011;26686;50.130;8.710;2023-03-20T04:31:11;8.80;;;7.88;;
40953;SDS011;26686;50.130;8.710;2023-03-20T04:36:12;7.65;;;6.85;;
40953;SDS011;26686;50.130;8.710;2023-03-20T04:41:14;8.88;;;7.97;;
40953;SDS011;26686;50.130;8.710;2023-03-20T04:46:16;7.97;;;7.18;;
40953;SDS011;26686;50.130;8.710;2023-03-20T04:51:18;9.32;;;7.95;;
40953;SDS011;26686;50.130;8.710;2023-03-20T04:56:19;9.00;;;8.13;;
40953;SDS011;26686;50.130;8.710;2023-03-20T05:01:20;8.65;;;7.75;;
40953;SDS011;26686;50.130;8.710;2023-03-20T05:06:23;9.73;;;7.63;;
40953;SDS011;26686;50.130;8.710;2023-03-20T05:11:25;9.70;;;8.73;;
40953;SDS011;26686;50.130;8.710;2023-03-20T05:16:27;9.70;;;8.50;;
40953;SDS011;26686;50.130;8.710;2023-03-20T05:21:28;9.00;;;8.07;;
40953;SDS011;26686;50.130;8.710;2023-03-20T05:26:30;10.88;;;8.60;;
40953;SDS011;26686;50.130;8.710;2023-03-20T05:31:33;12.75;;;10.02;;
40953;SDS011;26686;50.130;8.710;2023-03-20T05:36:34;11.13;;;9.82;;
40953;SDS011;26686;50.130;8.710;2023-03-20T05:41:35;10.93;;;9.77;;
40953;SDS011;26686;50.130;8.710;2023-03-20T05:46:37;13.13;;;11.13;;
40953;SDS011;26686;50.130;8.710;2023-03-20T05:51:39;11.00;;;9.85;;
40953;SDS011;26686;50.130;8.710;2023-03-20T05:56:40;12.07;;;10.23;;
40953;SDS011;26686;50.130;8.710;2023-03-20T06:01:41;12.10;;;10.82;;
40953;SDS011;26686;50.130;8.710;2023-03-20T06:06:43;12.23;;;10.93;;
40953;SDS011;26686;50.130;8.710;2023-03-20T06:11:44;14.88;;;12.80;;
40953;SDS011;26686;50.130;8.710;2023-03-20T06:16:46;14.73;;;12.48;;
40953;SDS011;26686;50.130;8.710;2023-03-20T06:21:48;16.20;;;12.73;;
40953;SDS011;26686;50.130;8.710;2023-03-20T06:26:50;17.92;;;14.55;;
40953;SDS011;26686;50.130;8.710;2023-03-20T06:31:51;18.20;;;14.55;;
40953;SDS011;26686;50.130;8.710;2023-03-20T06:36:53;17.17;;;14.10;;
40953;SDS011;26686;50.130;8.710;2023-03-20T06:41:54;22.33;;;17.33;;
40953;SDS011;26686;50.130;8.710;2023-03-20T06:46:56;19.48;;;16.67;;
40953;SDS011;26686;50.130;8.710;2023-03-20T06:51:57;22.98;;;18.50;;
40953;SDS011;26686;50.130;8.710;2023-03-20T06:56:59;26.60;;;20.15;;
40953;SDS011;26686;50.130;8.710;2023-03-20T07:02:02;25.05;;;18.92;;
40953;SDS011;26686;50.130;8.710;2023-03-20T07:07:04;24.88;;;19.50;;
40953;SDS011;26686;50.130;8.710;2023-03-20T07:12:09;24.15;;;18.95;;
40953;SDS011;26686;50.130;8.710;2023-03-20T07:17:14;26.02;;;19.23;;
40953;SDS011;26686;50.130;8.710;2023-03-20T07:22:34;30.10;;;22.55;;
40953;SDS011;26686;50.130;8.710;2023-03-20T07:27:36;29.83;;;21.60;;
40953;SDS011;26686;50.130;8.710;2023-03-20T07:32:38;27.02;;;21.33;;
40953;SDS011;26686;50.130;8.710;2023-03-20T07:37:40;28.73;;;21.60;;
40953;SDS011;26686;50.130;8.710;2023-03-20T07:42:43;27.55;;;20.48;;
40953;SDS011;26686;50.130;8.710;2023-03-20T07:47:44;21.83;;;17.20;;
40953;SDS011;26686;50.130;8.710;2023-03-20T07:52:47;23.50;;;18.55;;
40953;SDS011;26686;50.130;8.710;2023-03-20T07:57:50;25.05;;;19.65;;
40953;SDS011;26686;50.130;8.710;2023-03-20T08:02:52;23.13;;;18.83;;
40953;SDS011;26686;50.130;8.710;2023-03-20T08:07:53;23.10;;;18.38;;
40953;SDS011;26686;50.130;8.710;2023-03-20T08:12:55;24.52;;;18.77;;
40953;SDS011;26686;50.130;8.710;2023-03-20T08:17:56;23.08;;;17.52;;
40953;SDS011;26686;50.130;8.710;2023-03-20T08:22:58;23.90;;;17.85;;
40953;SDS011;26686;50.130;8.710;2023-03-20T08:28:00;22.13;;;17.95;;
40953;SDS011;26686;50.130;8.710;2023-03-20T08:33:02;21.50;;;16.80;;
40953;SDS011;26686;50.130;8.710;2023-03-20T08:38:03;23.85;;;19.05;;
40953;SDS011;26686;50.130;8.710;2023-03-20T08:43:05;25.08;;;18.42;;
40953;SDS011;26686;50.130;8.710;2023-03-20T08:48:08;24.95;;;19.35;;
40953;SDS011;26686;50.130;8.710;2023-03-20T08:53:10;24.05;;;19.45;;
40953;SDS011;26686;50.130;8.710;2023-03-20T08:58:12;28.85;;;21.40;;
40953;SDS011;26686;50.130;8.710;2023-03-20T09:03:13;28.25;;;22.58;;
40953;SDS011;26686;50.130;8.710;2023-03-20T09:08:16;26.85;;;20.50;;
40953;SDS011;26686;50.130;8.710;2023-03-20T09:13:18;28.77;;;22.60;;
40953;SDS011;26686;50.130;8.710;2023-03-20T09:18:28;28.30;;;21.42;;
40953;SDS011;26686;50.130;8.710;2023-03-20T09:23:29;29.98;;;22.35;;
40953;SDS011;26686;50.130;8.710;2023-03-20T09:28:32;29.13;;;23.20;;
40953;SDS011;26686;50.130;8.710;2023-03-20T09:33:33;28.25;;;21.33;;
40953;SDS011;26686;50.130;8.710;2023-03-20T09:38:35;29.60;;;22.85;;
40953;SDS011;26686;50.130;8.710;2023-03-20T09:43:50;30.75;;;22.23;;
40953;SDS011;26686;50.130;8.710;2023-03-20T09:49:00;32.20;;;23.27;;
40953;SDS011;26686;50.130;8.710;2023-03-20T09:54:32;27.90;;;21.85;;
40953;SDS011;26686;50.130;8.710;2023-03-20T09:59:56;31.17;;;23.07;;
40953;SDS011;26686;50.130;8.710;2023-03-20T10:04:59;24.45;;;19.70;;
40953;SDS011;26686;50.130;8.710;2023-03-20T10:10:04;28.73;;;21.83;;
40953;SDS011;26686;50.130;8.710;2023-03-20T10:15:26;22.42;;;19.10;;
40953;SDS011;26686;50.130;8.710;2023-03-20T10:21:33;23.10;;;18.55;;
40953;SDS011;26686;50.130;8.710;2023-03-20T10:26:17;21.30;;;17.90;;
40953;SDS011;26686;50.130;8.710;2023-03-20T10:31:25;23.02;;;18.02;;
40953;SDS011;26686;50.130;8.710;2023-03-20T10:37:10;19.80;;;17.05;;
40953;SDS011;26686;50.130;8.710;2023-03-20T10:42:34;20.80;;;16.63;;
40953;SDS011;26686;50.130;8.710;2023-03-20T10:47:40;17.08;;;14.02;;
40953;SDS011;26686;50.130;8.710;2023-03-20T10:52:44;18.48;;;14.13;;
40953;SDS011;26686;50.130;8.710;2023-03-20T10:57:51;16.83;;;12.88;;
40953;SDS011;26686;50.130;8.710;2023-03-20T11:02:58;13.43;;;10.88;;
40953;SDS011;26686;50.130;8.710;2023-03-20T11:08:04;13.88;;;11.13;;
40953;SDS011;26686;50.130;8.710;2023-03-20T11:13:43;12.60;;;10.00;;
40953;SDS011;26686;50.130;8.710;2023-03-20T11:18:40;9.35;;;8.38;;
40953;SDS011;26686;50.130;8.710;2023-03-20T11:23:42;9.70;;;8.27;;
40953;SDS011;26686;50.130;8.710;2023-03-20T11:28:48;9.43;;;8.48;;
40953;SDS011;26686;50.130;8.710;2023-03-20T11:34:38;9.55;;;8.57;;
40953;SDS011;26686;50.130;8.710;2023-03-20T11:39:16;9.98;;;8.07;;
40953;SDS011;26686;50.130;8.710;2023-03-20T11:44:24;11.68;;;9.07;;
40953;SDS011;26686;50.130;8.710;2023-03-20T11:49:31;9.30;;;8.40;;
40953;SDS011;26686;50.130;8.710;2023-03-20T11:59:35;10.73;;;8.95;;
40953;SDS011;26686;50.130;8.710;2023-03-20T12:04:39;10.48;;;9.45;;
40953;SDS011;26686;50.130;8.710;2023-03-20T12:09:53;8.68;;;7.85;;
40953;SDS011;26686;50.130;8.710;2023-03-20T12:15:04;7.90;;;6.28;;
40953;SDS011;26686;50.130;8.710;2023-03-20T12:20:38;6.63;;;5.78;;
40953;SDS011;26686;50.130;8.710;2023-03-20T12:25:56;8.68;;;6.93;;
40953;SDS011;26686;50.130;8.710;2023-03-20T12:31:20;8.80;;;7.07;;
40953;SDS011;26686;50.130;8.710;2023-03-20T12:36:34;6.78;;;5.97;;
40953;SDS011;26686;50.130;8.710;2023-03-20T12:52:37;9.05;;;7.35;;
40953;SDS011;26686;50.130;8.710;2023-03-20T13:08:33;5.97;;;5.25;;
40953;SDS011;26686;50.130;8.710;2023-03-20T13:13:47;6.15;;;5.03;;
40953;SDS011;26686;50.130;8.710;2023-03-20T13:24:46;6.78;;;3.97;;
40953;SDS011;26686;50.130;8.710;2023-03-20T13:35:22;4.10;;;3.70;;
40953;SDS011;26686;50.130;8.710;2023-03-20T13:40:51;13.70;;;4.03;;
40953;SDS011;26686;50.130;8.710;2023-03-20T13:46:08;3.72;;;2.65;;
40953;SDS011;26686;50.130;8.710;2023-03-20T13:51:32;4.43;;;2.28;;
40953;SDS011;26686;50.130;8.710;2023-03-20T13:57:24;3.22;;;2.10;;
40953;SDS011;26686;50.130;8.710;2023-03-20T14:07:56;2.45;;;2.25;;
40953;SDS011;26686;50.130;8.710;2023-03-20T14:12:58;4.05;;;2.40;;
40953;SDS011;26686;50.130;8.710;2023-03-20T14:18:02;3.80;;;2.27;;
40953;SDS011;26686;50.130;8.710;2023-03-20T14:23:17;3.55;;;1.83;;
40953;SDS011;26686;50.130;8.710;2023-03-20T14:28:27;3.92;;;2.33;;
40953;SDS011;26686;50.130;8.710;2023-03-20T14:33:34;3.63;;;2.10;;
40953;SDS011;26686;50.130;8.710;2023-03-20T14:39:02;34.85;;;7.30;;
40953;SDS011;26686;50.130;8.710;2023-03-20T14:44:28;3.75;;;2.22;;
40953;SDS011;26686;50.130;8.710;2023-03-20T14:55:13;4.90;;;2.35;;
40953;SDS011;26686;50.130;8.710;2023-03-20T15:00:18;4.10;;;2.60;;
40953;SDS011;26686;50.130;8.710;2023-03-20T15:05:27;7.00;;;2.50;;
40953;SDS011;26686;50.130;8.710;2023-03-20T15:10:32;5.13;;;2.90;;
40953;SDS011;26686;50.130;8.710;2023-03-20T15:15:37;4.20;;;2.60;;
40953;SDS011;26686;50.130;8.710;2023-03-20T15:20:42;4.78;;;2.75;;
40953;SDS011;26686;50.130;8.710;2023-03-20T15:25:45;5.90;;;2.85;;
40953;SDS011;26686;50.130;8.710;2023-03-20T15:30:48;3.67;;;2.37;;
40953;SDS011;26686;50.130;8.710;2023-03-20T15:35:53;3.17;;;2.53;;
40953;SDS011;26686;50.130;8.710;2023-03-20T15:40:55;3.70;;;2.45;;
40953;SDS011;26686;50.130;8.710;2023-03-20T15:45:57;3.65;;;2.15;;
40953;SDS011;26686;50.130;8.710;2023-03-20T15:51:25;3.72;;;2.03;;
40953;SDS011;26686;50.130;8.710;2023-03-20T15:56:28;3.90;;;2.25;;
40953;SDS011;26686;50.130;8.710;2023-03-20T16:01:30;2.30;;;2.10;;
40953;SDS011;26686;50.130;8.710;2023-03-20T16:06:33;5.27;;;2.00;;
40953;SDS011;26686;50.130;8.710;2023-03-20T16:11:38;2.03;;;1.40;;
40953;SDS011;26686;50.130;8.710;2023-03-20T16:16:41;2.22;;;1.17;;
40953;SDS011;26686;50.130;8.710;2023-03-20T16:21:48;1.67;;;1.25;;
40953;SDS011;26686;50.130;8.710;2023-03-20T16:26:52;2.30;;;1.58;;
40953;SDS011;26686;50.130;8.710;2023-03-20T16:42:31;2.63;;;1.75;;
40953;SDS011;26686;50.130;8.710;2023-03-20T16:47:33;2.65;;;1.67;;
40953;SDS011;26686;50.130;8.710;2023-03-20T16:52:37;3.30;;;1.60;;
40953;SDS011;26686;50.130;8.710;2023-03-20T17:02:42;3.42;;;1.35;;
40953;SDS011;26686;50.130;8.710;2023-03-20T17:07:52;1.80;;;1.35;;
40953;SDS011;26686;50.130;8.710;2023-03-20T17:13:04;1.80;;;1.50;;
40953;SDS011;26686;50.130;8.710;2023-03-20T17:18:10;3.20;;;1.23;;
40953;SDS011;26686;50.130;8.710;2023-03-20T17:23:13;1.98;;;1.42;;
40953;SDS011;26686;50.130;8.710;2023-03-20T17:28:21;3.85;;;1.67;;
40953;SDS011;26686;50.130;8.710;2023-03-20T17:33:28;2.38;;;1.45;;
40953;SDS011;26686;50.130;8.710;2023-03-20T17:38:29;3.15;;;1.60;;
40953;SDS011;26686;50.130;8.710;2023-03-20T17:43:31;3.00;;;1.77;;
40953;SDS011;26686;50.130;8.710;2023-03-20T17:48:33;3.50;;;1.63;;
40953;SDS011;26686;50.130;8.710;2023-03-20T17:53:34;5.25;;;2.05;;
40953;SDS011;26686;50.130;8.710;2023-03-20T17:58:36;4.90;;;1.70;;
40953;SDS011;26686;50.130;8.710;2023-03-20T18:03:39;4.05;;;1.95;;
40953;SDS011;26686;50.130;8.710;2023-03-20T18:08:41;2.63;;;1.75;;
40953;SDS011;26686;50.130;8.710;2023-03-20T18:13:42;3.28;;;2.20;;
40953;SDS011;26686;50.130;8.710;2023-03-20T18:18:44;4.38;;;2.20;;
40953;SDS011;26686;50.130;8.710;2023-03-20T18:23:46;3.35;;;1.92;;
40953;SDS011;26686;50.130;8.710;2023-03-20T18:28:48;4.35;;;2.75;;
40953;SDS011;26686;50.130;8.710;2023-03-20T18:33:51;2.97;;;2.05;;
40953;SDS011;26686;50.130;8.710;2023-03-20T18:38:53;1.92;;;1.67;;
40953;SDS011;26686;50.130;8.710;2023-03-20T18:43:55;2.45;;;1.73;;
40953;SDS011;26686;50.130;8.710;2023-03-20T18:48:56;3.67;;;2.25;;
40953;SDS011;26686;50.130;8.710;2023-03-20T18:53:58;4.80;;;1.75;;
40953;SDS011;26686;50.130;8.710;2023-03-20T18:59:00;4.05;;;1.92;;
40953;SDS011;26686;50.130;8.710;2023-03-20T19:04:01;3.67;;;1.98;;
40953;SDS011;26686;50.130;8.710;2023-03-20T19:09:03;4.10;;;1.95;;
40953;SDS011;26686;50.130;8.710;2023-03-20T19:14:05;4.50;;;2.22;;
40953;SDS011;26686;50.130;8.710;2023-03-20T19:19:07;3.38;;;1.77;;
40953;SDS011;26686;50.130;8.710;2023-03-20T19:24:11;5.03;;;2.53;;
40953;SDS011;26686;50.130;8.710;2023-03-20T19:29:12;3.10;;;1.90;;
40953;SDS011;26686;50.130;8.710;2023-03-20T19:34:14;3.88;;;2.40;;
40953;SDS011;26686;50.130;8.710;2023-03-20T19:39:36;4.25;;;2.17;;
40953;SDS011;26686;50.130;8.710;2023-03-20T19:44:37;2.67;;;2.17;;
40953;SDS011;26686;50.130;8.710;2023-03-20T19:49:39;4.75;;;3.17;;
40953;SDS011;26686;50.130;8.710;2023-03-20T19:54:40;3.42;;;2.17;;
40953;SDS011;26686;50.130;8.710;2023-03-20T20:00:00;4.70;;;2.53;;
40953;SDS011;26686;50.130;8.710;2023-03-20T20:05:23;5.47;;;2.20;;
40953;SDS011;26686;50.130;8.710;2023-03-20T20:10:30;6.25;;;2.40;;
40953;SDS011;26686;50.130;8.710;2023-03-20T20:15:39;4.30;;;2.40;;
40953;SDS011;26686;50.130;8.710;2023-03-20T20:20:40;5.32;;;3.20;;
40953;SDS011;26686;50.130;8.710;2023-03-20T20:26:03;5.93;;;2.72;;
40953;SDS011;26686;50.130;8.710;2023-03-20T20:31:05;3.45;;;2.55;;
40953;SDS011;26686;50.130;8.710;2023-03-20T20:36:10;5.22;;;2.60;;
40953;SDS011;26686;50.130;8.710;2023-03-20T20:41:32;3.40;;;2.38;;
40953;SDS011;26686;50.130;8.710;2023-03-20T20:46:34;4.25;;;2.55;;
40953;SDS011;26686;50.130;8.710;2023-03-20T20:51:35;6.50;;;3.40;;
40953;SDS011;26686;50.130;8.710;2023-03-20T20:56:36;4.90;;;2.15;;
40953;SDS011;26686;50.130;8.710;2023-03-20T21:01:38;5.95;;;2.83;;
40953;SDS011;26686;50.130;8.710;2023-03-20T21:06:39;4.93;;;2.35;;
40953;SDS011;26686;50.130;8.710;2023-03-20T21:12:01;4.22;;;1.88;;
40953;SDS011;26686;50.130;8.710;2023-03-20T21:17:03;3.92;;;2.33;;
40953;SDS011;26686;50.130;8.710;2023-03-20T21:22:07;3.78;;;1.90;;
40953;SDS011;26686;50.130;8.710;2023-03-20T21:32:14;4.10;;;2.10;;
40953;SDS011;26686;50.130;8.710;2023-03-20T21:37:19;4.53;;;2.33;;
40953;SDS011;26686;50.130;8.710;2023-03-20T21:42:41;4.30;;;2.25;;
40953;SDS011;26686;50.130;8.710;2023-03-20T21:47:42;3.03;;;1.90;;
40953;SDS011;26686;50.130;8.710;2023-03-20T21:53:04;5.05;;;1.48;;
40953;SDS011;26686;50.130;8.710;2023-03-20T21:58:27;4.30;;;1.65;;
40953;SDS011;26686;50.130;8.710;2023-03-20T22:03:48;3.35;;;1.98;;
40953;SDS011;26686;50.130;8.710;2023-03-20T22:09:09;5.22;;;1.95;;
40953;SDS011;26686;50.130;8.710;2023-03-20T22:14:31;5.43;;;1.88;;
40953;SDS011;26686;50.130;8.710;2023-03-20T22:19:52;5.85;;;1.92;;
40953;SDS011;26686;50.130;8.710;2023-03-20T22:25:14;2.92;;;1.90;;
40953;SDS011;26686;50.130;8.710;2023-03-20T22:30:36;2.78;;;1.70;;
40953;SDS011;26686;50.130;8.710;2023-03-20T22:35:57;6.55;;;2.17;;
40953;SDS011;26686;50.130;8.710;2023-03-20T22:41:19;7.50;;;2.67;;
40953;SDS011;26686;50.130;8.710;2023-03-20T22:46:42;3.08;;;2.30;;
40953;SDS011;26686;50.130;8.710;2023-03-20T22:51:47;4.30;;;1.95;;
40953;SDS011;26686;50.130;8.710;2023-03-20T22:57:09;5.32;;;2.05;;
40953;SDS011;26686;50.130;8.710;2023-03-20T23:02:10;5.25;;;2.45;;
40953;SDS011;26686;50.130;8.710;2023-03-20T23:07:11;4.15;;;2.20;;
40953;SDS011;26686;50.130;8.710;2023-03-20T23:12:13;4.53;;;1.83;;
40953;SDS011;26686;50.130;8.710;2023-03-20T23:17:14;5.38;;;1.85;;
40953;SDS011;26686;50.130;8.710;2023-03-20T23:22:16;4.70;;;2.33;;
40953;SDS011;26686;50.130;8.710;2023-03-20T23:27:18;6.63;;;3.67;;
40953;SDS011;26686;50.130;8.710;2023-03-20T23:32:20;4.63;;;3.20;;
40953;SDS011;26686;50.130;8.710;2023-03-20T23:37:22;4.13;;;3.10;;
40953;SDS011;26686;50.130;8.710;2023-03-20T23:42:23;5.95;;;3.13;;
40953;SDS011;26686;50.130;8.710;2023-03-20T23:47:31;9.15;;;5.03;;
40953;SDS011;26686;50.130;8.710;2023-03-20T23:52:45;6.73;;;3.47;;
40953;SDS011;26686;50.130;8.710;2023-03-20T23:58:01;4.95;;;3.03;;
